Terminal Aerodrome Forecast
Issued by NWS Los Angeles, CA

Home | Current Version | Previous Version | Text Only | Print | Product List | Glossary On
Versions: 1 2 3 4 5 6 7 8 9 10 11 12 13 14 15 16 17 18 19 20 21 22 23 24 25 26 27 28
000
FTUS46 KLOX 272300 RRA
TAFSMX
TAF
KSMX 272341Z 2800/2824 30010KT P6SM BKN150
     FM280300 VRB03KT P6SM SCT150
     FM280600 VRB03KT 2SM BR OVC004
     FM281000 VRB03KT 1/4SM FG VV001
     FM281500 VRB03KT 4SM BR OVC003
     FM281700 VRB03KT P6SM SCT150
     FM282200 31012KT P6SM BKN150=

USA.gov is the U.S. government's official web portal to all federal, state and local government web resources and services.